createdAt,value
2022-10-18T00:08:43.733Z,15.43
2022-10-18T00:28:43.705Z,15.18
2022-10-18T00:48:43.773Z,15.31
2022-10-18T01:08:43.691Z,15.31
2022-10-18T01:28:43.626Z,15.37
2022-10-18T01:48:43.609Z,15.25
2022-10-18T02:08:43.583Z,15.25
2022-10-18T02:28:43.572Z,15.12
2022-10-18T02:48:43.562Z,15.00
2022-10-18T03:08:43.517Z,15.06
2022-10-18T03:28:43.498Z,15.12
2022-10-18T03:48:43.466Z,15.06
2022-10-18T04:08:43.443Z,15.06
2022-10-18T04:28:43.420Z,15.06
2022-10-18T04:48:43.400Z,15.06
2022-10-18T05:08:43.382Z,15.18
2022-10-18T05:28:43.373Z,15.25
2022-10-18T05:48:43.354Z,15.00
2022-10-18T06:08:43.319Z,15.00
2022-10-18T06:28:43.320Z,15.12
2022-10-18T06:48:43.282Z,15.06
2022-10-18T07:08:43.261Z,15.00
2022-10-18T07:28:43.226Z,15.31
2022-10-18T07:48:43.198Z,15.00
2022-10-18T08:08:43.189Z,15.18
2022-10-18T08:28:43.155Z,15.25
2022-10-18T08:48:43.158Z,15.37
2022-10-18T09:08:43.247Z,15.18
2022-10-18T09:28:43.087Z,15.37
2022-10-18T09:48:43.045Z,15.43
2022-10-18T10:08:43.037Z,15.25
2022-10-18T10:28:43.081Z,15.18
2022-10-18T10:48:42.974Z,15.06
2022-10-18T11:08:42.981Z,15.18
2022-10-18T11:28:42.933Z,15.31
2022-10-18T11:48:42.896Z,15.18
2022-10-18T12:08:42.872Z,15.18
2022-10-18T12:28:42.833Z,14.56
2022-10-18T12:48:42.809Z,15.37
2022-10-18T13:08:42.770Z,15.68
2022-10-18T13:28:42.749Z,15.75
2022-10-18T13:48:42.745Z,15.81
2022-10-18T14:08:42.699Z,15.62
2022-10-18T14:28:42.662Z,15.68
2022-10-18T14:48:42.628Z,15.81
2022-10-18T15:08:42.606Z,15.56
2022-10-18T15:28:42.565Z,15.81
2022-10-18T15:48:42.547Z,15.68
2022-10-18T16:08:42.519Z,15.93
2022-10-18T16:28:42.481Z,15.87
2022-10-18T16:48:42.465Z,15.87
2022-10-18T17:08:42.446Z,15.87
2022-10-18T17:28:42.409Z,15.87
2022-10-18T17:48:42.377Z,15.87
2022-10-18T18:08:42.333Z,15.81
2022-10-18T18:28:42.457Z,15.75
2022-10-18T18:48:42.294Z,15.68
2022-10-18T19:08:42.261Z,15.75
2022-10-18T19:28:42.225Z,15.62
2022-10-18T19:48:42.295Z,15.75
2022-10-18T20:08:42.188Z,15.62
2022-10-18T20:28:42.162Z,15.62
2022-10-18T20:48:42.143Z,15.68
2022-10-18T21:08:42.171Z,15.62
2022-10-18T21:28:42.085Z,15.56
2022-10-18T21:48:42.101Z,15.81
2022-10-18T22:08:42.053Z,15.50
2022-10-18T22:28:42.000Z,15.75
2022-10-18T22:48:41.975Z,15.50
2022-10-18T23:08:41.937Z,15.62
2022-10-18T23:28:41.926Z,15.56
2022-10-18T23:48:41.902Z,15.43
